createdAt,value
2018-12-16T17:33:26.528Z,3.00
2018-12-16T17:35:54.399Z,3.60
2018-12-16T17:38:22.334Z,4.50
2018-12-16T17:40:50.079Z,5.10
2018-12-16T17:43:17.700Z,5.50
2018-12-16T17:45:45.381Z,5.90
2018-12-16T17:48:13.095Z,6.10
2018-12-16T17:50:40.764Z,6.30
2018-12-16T17:53:08.577Z,6.30
2018-12-16T17:55:36.349Z,6.40
2018-12-16T17:58:03.939Z,6.40
2018-12-16T18:00:31.603Z,6.40
2018-12-16T18:02:59.276Z,6.50
2018-12-16T18:05:26.982Z,6.60
2018-12-16T18:07:54.706Z,6.50
2018-12-16T18:10:22.549Z,6.60
2018-12-16T18:12:50.756Z,6.70
2018-12-16T18:15:18.488Z,6.80
2018-12-16T18:17:46.280Z,6.80
2018-12-16T18:20:14.030Z,6.90
2018-12-16T18:22:41.832Z,6.90
2018-12-16T18:25:09.731Z,6.90
2018-12-16T18:27:37.550Z,6.90
2018-12-16T18:30:06.898Z,6.90
2018-12-16T18:32:34.750Z,6.80
2018-12-16T18:35:02.498Z,6.90
2018-12-16T18:37:30.432Z,6.90
2018-12-16T18:39:58.264Z,6.80
2018-12-16T18:42:26.090Z,6.70
2018-12-16T18:44:53.924Z,6.70
2018-12-16T18:47:28.279Z,6.70
2018-12-16T18:49:55.991Z,6.70
2018-12-16T18:52:23.769Z,6.70
2018-12-16T18:54:51.527Z,6.70
2018-12-16T18:57:19.152Z,6.80
2018-12-16T18:59:46.830Z,6.80
2018-12-16T19:02:14.523Z,6.80
2018-12-16T19:04:42.159Z,6.80
2018-12-16T19:07:09.882Z,6.80
2018-12-16T19:09:37.581Z,6.80
2018-12-16T19:12:05.281Z,6.90
2018-12-16T19:14:33.291Z,6.90
2018-12-16T19:17:00.987Z,6.90
2018-12-16T19:19:28.756Z,6.90
2018-12-16T19:21:56.405Z,6.90
2018-12-16T19:24:24.091Z,6.90
2018-12-16T19:26:57.984Z,6.90
2018-12-16T19:29:21.765Z,6.80
2018-12-16T19:31:50.007Z,6.70
2018-12-16T19:34:17.631Z,6.70
2018-12-16T19:36:45.822Z,6.70
2018-12-16T19:39:13.730Z,6.70
2018-12-16T19:41:41.490Z,6.60
2018-12-16T19:44:10.208Z,6.60
2018-12-16T19:46:38.103Z,6.70
2018-12-16T19:49:05.898Z,6.70
2018-12-16T19:51:33.765Z,6.70
2018-12-16T19:54:01.551Z,6.80
2018-12-16T19:56:29.723Z,6.70
2018-12-16T19:58:57.972Z,6.70
2018-12-16T20:01:26.452Z,6.70
2018-12-16T20:03:59.953Z,6.80
2018-12-16T20:06:33.451Z,6.70
2018-12-16T20:09:02.496Z,6.70
2018-12-16T20:11:30.549Z,6.60
2018-12-16T20:13:58.525Z,6.50
2018-12-16T20:16:26.432Z,6.40
2018-12-16T20:18:54.288Z,6.40
2018-12-16T20:21:22.058Z,6.30
2018-12-16T20:23:49.916Z,6.30
2018-12-16T20:26:17.731Z,6.40
2018-12-16T20:28:45.664Z,6.40
2018-12-16T20:31:13.512Z,6.40
2018-12-16T20:33:41.247Z,6.40
2018-12-16T20:36:09.283Z,6.60
2018-12-16T20:38:37.356Z,6.70
2018-12-16T20:41:05.066Z,6.60
2018-12-16T20:43:32.851Z,6.60
2018-12-16T20:46:00.798Z,6.70
2018-12-16T20:48:28.541Z,6.50
2018-12-16T20:50:56.294Z,6.60
2018-12-16T20:53:27.360Z,6.60
2018-12-16T20:55:55.108Z,6.60
2018-12-16T20:58:22.949Z,6.60
2018-12-16T21:00:50.878Z,6.60
2018-12-16T21:03:18.579Z,6.60
2018-12-16T21:05:46.467Z,6.50
2018-12-16T21:08:14.237Z,6.60
2018-12-16T21:10:42.076Z,6.60
2018-12-16T21:13:15.325Z,6.70
2018-12-16T21:15:48.509Z,6.70
2018-12-16T21:18:25.295Z,6.50
2018-12-16T21:20:53.001Z,6.60
2018-12-16T21:23:20.701Z,6.50
2018-12-16T21:25:48.389Z,6.60
2018-12-16T21:28:16.044Z,6.70
2018-12-16T21:30:43.731Z,6.70
2018-12-16T21:33:11.333Z,6.70
2018-12-16T21:35:38.921Z,6.70
2018-12-16T21:38:06.614Z,6.80
2018-12-16T21:40:34.371Z,6.80
2018-12-16T21:43:02.023Z,6.80
2018-12-16T21:45:29.596Z,6.80
2018-12-16T21:47:57.143Z,6.80
2018-12-16T21:50:24.738Z,6.80
2018-12-16T21:52:52.260Z,6.80
2018-12-16T21:55:20.453Z,6.70
2018-12-16T21:57:48.089Z,6.70
2018-12-16T22:00:15.719Z,6.70
2018-12-16T22:02:43.274Z,6.70
2018-12-16T22:05:15.528Z,6.70
2018-12-16T22:07:53.246Z,6.70
2018-12-16T22:10:32.976Z,6.70
2018-12-16T22:13:19.329Z,6.70
2018-12-16T22:16:02.770Z,6.70
2018-12-16T22:21:33.027Z,6.60
2018-12-16T22:24:00.560Z,6.60
2018-12-16T22:26:28.174Z,6.60
2018-12-16T22:28:55.740Z,6.60
2018-12-16T22:31:23.316Z,6.60
2018-12-16T22:33:50.947Z,6.60
2018-12-16T22:36:18.482Z,6.60
2018-12-16T22:38:46.047Z,6.70
2018-12-16T22:41:13.674Z,6.70
2018-12-16T22:43:41.482Z,6.70
2018-12-16T22:46:09.332Z,6.60
2018-12-16T22:48:36.887Z,6.60
2018-12-16T22:51:04.393Z,6.70
2018-12-16T22:53:31.922Z,6.70
2018-12-16T22:55:59.484Z,6.60
2018-12-16T22:58:26.971Z,6.60
2018-12-16T23:01:01.620Z,6.60
2018-12-16T23:03:29.126Z,6.50
2018-12-16T23:05:56.634Z,6.60
2018-12-16T23:08:24.130Z,6.60
2018-12-16T23:10:51.652Z,6.50
2018-12-16T23:13:19.160Z,6.50
2018-12-16T23:15:46.623Z,6.40
2018-12-16T23:18:14.119Z,6.40
2018-12-16T23:20:41.654Z,6.40
2018-12-16T23:23:09.180Z,6.40
2018-12-16T23:25:36.708Z,6.40
2018-12-16T23:28:04.232Z,6.40
2018-12-16T23:30:31.805Z,6.40
2018-12-16T23:32:59.368Z,6.40
2018-12-16T23:35:26.917Z,6.40
2018-12-16T23:37:54.494Z,6.40
2018-12-16T23:40:22.222Z,6.40
2018-12-16T23:42:49.787Z,6.40
2018-12-16T23:45:17.264Z,6.40
2018-12-16T23:47:44.807Z,6.40
2018-12-16T23:50:12.280Z,6.40
2018-12-16T23:52:39.794Z,6.40
2018-12-16T23:55:07.299Z,6.40
2018-12-16T23:57:34.817Z,6.40
